sensor_id;sensor_type;location;lat;lon;timestamp;P1;durP1;ratioP1;P2;durP2;ratioP2
52512;SDS011;38422;53.172;6.974;2023-06-26T00:00:46;5.00;;;4.23;;
52512;SDS011;38422;53.172;6.974;2023-06-26T00:03:13;5.00;;;4.10;;
52512;SDS011;38422;53.172;6.974;2023-06-26T00:05:40;5.35;;;4.18;;
52512;SDS011;38422;53.172;6.974;2023-06-26T00:08:07;4.72;;;4.00;;
52512;SDS011;38422;53.172;6.974;2023-06-26T00:10:32;4.67;;;4.10;;
52512;SDS011;38422;53.172;6.974;2023-06-26T00:12:59;4.83;;;4.20;;
52512;SDS011;38422;53.172;6.974;2023-06-26T00:15:25;4.97;;;4.20;;
52512;SDS011;38422;53.172;6.974;2023-06-26T00:17:50;4.63;;;4.13;;
52512;SDS011;38422;53.172;6.974;2023-06-26T00:20:16;5.50;;;4.33;;
52512;SDS011;38422;53.172;6.974;2023-06-26T00:22:44;4.93;;;4.30;;
52512;SDS011;38422;53.172;6.974;2023-06-26T00:25:10;5.05;;;4.50;;
52512;SDS011;38422;53.172;6.974;2023-06-26T00:27:36;4.77;;;4.27;;
52512;SDS011;38422;53.172;6.974;2023-06-26T00:30:01;4.83;;;4.33;;
52512;SDS011;38422;53.172;6.974;2023-06-26T00:32:28;5.25;;;4.75;;
52512;SDS011;38422;53.172;6.974;2023-06-26T00:34:53;5.37;;;4.67;;
52512;SDS011;38422;53.172;6.974;2023-06-26T00:37:19;5.47;;;4.43;;
52512;SDS011;38422;53.172;6.974;2023-06-26T00:39:46;5.53;;;4.78;;
52512;SDS011;38422;53.172;6.974;2023-06-26T00:42:12;5.67;;;4.43;;
52512;SDS011;38422;53.172;6.974;2023-06-26T00:44:37;5.53;;;4.87;;
52512;SDS011;38422;53.172;6.974;2023-06-26T00:47:03;5.87;;;4.63;;
52512;SDS011;38422;53.172;6.974;2023-06-26T00:49:29;4.63;;;4.13;;
52512;SDS011;38422;53.172;6.974;2023-06-26T00:51:55;5.37;;;4.37;;
52512;SDS011;38422;53.172;6.974;2023-06-26T00:54:21;5.00;;;4.50;;
52512;SDS011;38422;53.172;6.974;2023-06-26T00:56:47;5.85;;;4.82;;
52512;SDS011;38422;53.172;6.974;2023-06-26T00:59:13;5.30;;;4.80;;
52512;SDS011;38422;53.172;6.974;2023-06-26T01:01:39;5.30;;;4.80;;
52512;SDS011;38422;53.172;6.974;2023-06-26T01:04:05;5.23;;;4.73;;
52512;SDS011;38422;53.172;6.974;2023-06-26T01:06:31;4.85;;;4.30;;
52512;SDS011;38422;53.172;6.974;2023-06-26T01:09:00;5.70;;;5.20;;
52512;SDS011;38422;53.172;6.974;2023-06-26T01:11:27;5.65;;;4.90;;
52512;SDS011;38422;53.172;6.974;2023-06-26T01:13:53;5.77;;;4.40;;
52512;SDS011;38422;53.172;6.974;2023-06-26T01:16:21;5.20;;;4.70;;
52512;SDS011;38422;53.172;6.974;2023-06-26T01:18:49;5.25;;;4.75;;
52512;SDS011;38422;53.172;6.974;2023-06-26T01:21:15;5.28;;;4.32;;
52512;SDS011;38422;53.172;6.974;2023-06-26T01:26:35;5.90;;;5.30;;
52512;SDS011;38422;53.172;6.974;2023-06-26T01:29:06;6.50;;;4.95;;
52512;SDS011;38422;53.172;6.974;2023-06-26T01:31:32;5.05;;;4.60;;
52512;SDS011;38422;53.172;6.974;2023-06-26T01:33:59;5.50;;;4.97;;
52512;SDS011;38422;53.172;6.974;2023-06-26T01:36:26;5.78;;;4.78;;
52512;SDS011;38422;53.172;6.974;2023-06-26T01:38:52;5.28;;;4.78;;
52512;SDS011;38422;53.172;6.974;2023-06-26T01:41:18;5.97;;;5.00;;
52512;SDS011;38422;53.172;6.974;2023-06-26T01:48:55;5.25;;;4.75;;
52512;SDS011;38422;53.172;6.974;2023-06-26T01:51:46;6.85;;;4.72;;
52512;SDS011;38422;53.172;6.974;2023-06-26T01:54:18;6.45;;;5.07;;
52512;SDS011;38422;53.172;6.974;2023-06-26T01:56:48;5.82;;;5.05;;
52512;SDS011;38422;53.172;6.974;2023-06-26T01:59:15;6.15;;;5.00;;
52512;SDS011;38422;53.172;6.974;2023-06-26T02:01:42;7.35;;;5.20;;
52512;SDS011;38422;53.172;6.974;2023-06-26T02:04:08;6.17;;;4.93;;
52512;SDS011;38422;53.172;6.974;2023-06-26T02:06:34;5.77;;;5.00;;
52512;SDS011;38422;53.172;6.974;2023-06-26T02:08:59;5.77;;;5.20;;
52512;SDS011;38422;53.172;6.974;2023-06-26T02:11:25;5.73;;;5.13;;
52512;SDS011;38422;53.172;6.974;2023-06-26T02:13:51;6.90;;;5.10;;
52512;SDS011;38422;53.172;6.974;2023-06-26T02:16:16;5.93;;;5.33;;
52512;SDS011;38422;53.172;6.974;2023-06-26T02:18:42;5.90;;;5.20;;
52512;SDS011;38422;53.172;6.974;2023-06-26T02:21:08;5.37;;;4.87;;
52512;SDS011;38422;53.172;6.974;2023-06-26T02:23:34;5.80;;;5.18;;
52512;SDS011;38422;53.172;6.974;2023-06-26T02:26:00;5.60;;;5.00;;
52512;SDS011;38422;53.172;6.974;2023-06-26T02:28:26;6.03;;;4.80;;
52512;SDS011;38422;53.172;6.974;2023-06-26T02:30:51;5.67;;;5.17;;
52512;SDS011;38422;53.172;6.974;2023-06-26T02:33:17;5.43;;;4.80;;
52512;SDS011;38422;53.172;6.974;2023-06-26T02:35:43;5.50;;;5.00;;
52512;SDS011;38422;53.172;6.974;2023-06-26T02:38:09;7.50;;;4.93;;
52512;SDS011;38422;53.172;6.974;2023-06-26T02:40:35;6.47;;;4.83;;
52512;SDS011;38422;53.172;6.974;2023-06-26T02:43:00;6.23;;;5.00;;
52512;SDS011;38422;53.172;6.974;2023-06-26T02:45:26;5.57;;;5.07;;
52512;SDS011;38422;53.172;6.974;2023-06-26T02:47:52;5.63;;;5.10;;
52512;SDS011;38422;53.172;6.974;2023-06-26T02:50:17;6.70;;;4.97;;
52512;SDS011;38422;53.172;6.974;2023-06-26T02:52:43;5.40;;;4.90;;
52512;SDS011;38422;53.172;6.974;2023-06-26T02:55:09;5.90;;;5.30;;
52512;SDS011;38422;53.172;6.974;2023-06-26T02:57:34;5.50;;;5.00;;
52512;SDS011;38422;53.172;6.974;2023-06-26T03:00:00;5.53;;;5.00;;
52512;SDS011;38422;53.172;6.974;2023-06-26T03:02:25;5.57;;;4.93;;
52512;SDS011;38422;53.172;6.974;2023-06-26T03:04:51;5.23;;;4.73;;
52512;SDS011;38422;53.172;6.974;2023-06-26T03:07:18;6.28;;;5.68;;
52512;SDS011;38422;53.172;6.974;2023-06-26T03:09:43;6.23;;;4.97;;
52512;SDS011;38422;53.172;6.974;2023-06-26T03:12:09;5.60;;;5.10;;
52512;SDS011;38422;53.172;6.974;2023-06-26T03:14:34;5.97;;;5.33;;
52512;SDS011;38422;53.172;6.974;2023-06-26T03:17:00;5.93;;;5.33;;
52512;SDS011;38422;53.172;6.974;2023-06-26T03:19:28;5.95;;;5.35;;
52512;SDS011;38422;53.172;6.974;2023-06-26T03:21:54;6.68;;;5.45;;
52512;SDS011;38422;53.172;6.974;2023-06-26T03:24:20;6.03;;;5.43;;
52512;SDS011;38422;53.172;6.974;2023-06-26T03:26:46;5.60;;;5.10;;
52512;SDS011;38422;53.172;6.974;2023-06-26T03:29:11;5.50;;;5.00;;
52512;SDS011;38422;53.172;6.974;2023-06-26T03:31:37;5.37;;;4.87;;
52512;SDS011;38422;53.172;6.974;2023-06-26T03:34:03;8.10;;;5.70;;
52512;SDS011;38422;53.172;6.974;2023-06-26T03:36:29;6.30;;;5.70;;
52512;SDS011;38422;53.172;6.974;2023-06-26T03:38:54;6.23;;;5.63;;
52512;SDS011;38422;53.172;6.974;2023-06-26T03:41:22;5.45;;;4.95;;
52512;SDS011;38422;53.172;6.974;2023-06-26T03:43:48;5.97;;;5.25;;
52512;SDS011;38422;53.172;6.974;2023-06-26T03:46:14;6.10;;;5.50;;
52512;SDS011;38422;53.172;6.974;2023-06-26T03:48:40;6.40;;;5.73;;
52512;SDS011;38422;53.172;6.974;2023-06-26T03:51:06;6.37;;;5.77;;
52512;SDS011;38422;53.172;6.974;2023-06-26T03:53:32;6.60;;;6.00;;
52512;SDS011;38422;53.172;6.974;2023-06-26T03:55:59;7.20;;;5.78;;
52512;SDS011;38422;53.172;6.974;2023-06-26T03:58:24;7.40;;;5.53;;
52512;SDS011;38422;53.172;6.974;2023-06-26T04:00:50;6.20;;;5.70;;
52512;SDS011;38422;53.172;6.974;2023-06-26T04:03:16;6.53;;;5.83;;
52512;SDS011;38422;53.172;6.974;2023-06-26T04:05:42;6.60;;;5.90;;
52512;SDS011;38422;53.172;6.974;2023-06-26T04:08:08;6.23;;;5.60;;
52512;SDS011;38422;53.172;6.974;2023-06-26T04:10:34;7.13;;;5.63;;
52512;SDS011;38422;53.172;6.974;2023-06-26T04:13:01;6.88;;;6.18;;
52512;SDS011;38422;53.172;6.974;2023-06-26T04:15:27;6.13;;;5.50;;
52512;SDS011;38422;53.172;6.974;2023-06-26T04:17:53;8.27;;;5.97;;
52512;SDS011;38422;53.172;6.974;2023-06-26T04:20:18;7.23;;;6.00;;
52512;SDS011;38422;53.172;6.974;2023-06-26T04:22:44;6.57;;;5.97;;
52512;SDS011;38422;53.172;6.974;2023-06-26T04:25:10;6.83;;;6.10;;
52512;SDS011;38422;53.172;6.974;2023-06-26T04:27:39;6.85;;;6.15;;
52512;SDS011;38422;53.172;6.974;2023-06-26T04:30:05;6.87;;;6.17;;
52512;SDS011;38422;53.172;6.974;2023-06-26T04:32:31;6.80;;;5.72;;
52512;SDS011;38422;53.172;6.974;2023-06-26T04:34:56;6.77;;;6.17;;
52512;SDS011;38422;53.172;6.974;2023-06-26T04:37:22;6.30;;;5.70;;
52512;SDS011;38422;53.172;6.974;2023-06-26T04:39:49;6.68;;;5.88;;
52512;SDS011;38422;53.172;6.974;2023-06-26T04:42:15;6.68;;;5.93;;
52512;SDS011;38422;53.172;6.974;2023-06-26T04:44:41;6.87;;;5.50;;
52512;SDS011;38422;53.172;6.974;2023-06-26T04:47:07;5.47;;;4.97;;
52512;SDS011;38422;53.172;6.974;2023-06-26T04:49:34;6.53;;;4.90;;
52512;SDS011;38422;53.172;6.974;2023-06-26T04:51:59;7.60;;;5.03;;
52512;SDS011;38422;53.172;6.974;2023-06-26T04:54:25;5.80;;;5.07;;
52512;SDS011;38422;53.172;6.974;2023-06-26T04:56:52;6.88;;;5.20;;
52512;SDS011;38422;53.172;6.974;2023-06-26T04:59:18;5.67;;;5.07;;
52512;SDS011;38422;53.172;6.974;2023-06-26T05:01:44;6.40;;;5.10;;
52512;SDS011;38422;53.172;6.974;2023-06-26T05:04:13;5.60;;;5.10;;
52512;SDS011;38422;53.172;6.974;2023-06-26T05:06:40;5.50;;;5.00;;
52512;SDS011;38422;53.172;6.974;2023-06-26T05:09:06;5.20;;;4.70;;
52512;SDS011;38422;53.172;6.974;2023-06-26T05:11:32;6.87;;;4.67;;
52512;SDS011;38422;53.172;6.974;2023-06-26T05:13:57;8.90;;;4.77;;
52512;SDS011;38422;53.172;6.974;2023-06-26T05:16:23;7.40;;;4.80;;
52512;SDS011;38422;53.172;6.974;2023-06-26T05:18:49;5.77;;;4.13;;
52512;SDS011;38422;53.172;6.974;2023-06-26T05:21:15;7.03;;;4.57;;
52512;SDS011;38422;53.172;6.974;2023-06-26T05:26:09;6.68;;;4.22;;
52512;SDS011;38422;53.172;6.974;2023-06-26T05:28:35;5.68;;;4.18;;
52512;SDS011;38422;53.172;6.974;2023-06-26T05:31:02;5.10;;;4.15;;
52512;SDS011;38422;53.172;6.974;2023-06-26T05:33:30;6.25;;;4.13;;
52512;SDS011;38422;53.172;6.974;2023-06-26T05:35:59;9.07;;;4.40;;
52512;SDS011;38422;53.172;6.974;2023-06-26T05:38:27;6.78;;;4.47;;
52512;SDS011;38422;53.172;6.974;2023-06-26T05:40:53;6.67;;;4.47;;
52512;SDS011;38422;53.172;6.974;2023-06-26T05:43:19;7.80;;;4.47;;
52512;SDS011;38422;53.172;6.974;2023-06-26T05:45:46;7.40;;;4.38;;
52512;SDS011;38422;53.172;6.974;2023-06-26T05:48:13;6.53;;;4.50;;
52512;SDS011;38422;53.172;6.974;2023-06-26T05:50:39;6.17;;;4.03;;
52512;SDS011;38422;53.172;6.974;2023-06-26T05:53:07;8.10;;;4.63;;
52512;SDS011;38422;53.172;6.974;2023-06-26T05:55:33;6.57;;;4.43;;
52512;SDS011;38422;53.172;6.974;2023-06-26T05:57:59;7.57;;;4.47;;
52512;SDS011;38422;53.172;6.974;2023-06-26T06:00:27;7.22;;;5.03;;
52512;SDS011;38422;53.172;6.974;2023-06-26T06:02:53;7.70;;;4.90;;
52512;SDS011;38422;53.172;6.974;2023-06-26T06:05:19;7.33;;;4.70;;
52512;SDS011;38422;53.172;6.974;2023-06-26T06:07:46;9.40;;;5.28;;
52512;SDS011;38422;53.172;6.974;2023-06-26T06:10:12;9.93;;;5.43;;
52512;SDS011;38422;53.172;6.974;2023-06-26T06:12:38;9.47;;;5.73;;
52512;SDS011;38422;53.172;6.974;2023-06-26T06:15:04;8.90;;;5.33;;
52512;SDS011;38422;53.172;6.974;2023-06-26T06:19:56;7.13;;;4.70;;
52512;SDS011;38422;53.172;6.974;2023-06-26T06:22:22;7.97;;;4.17;;
52512;SDS011;38422;53.172;6.974;2023-06-26T06:24:51;7.80;;;3.90;;
52512;SDS011;38422;53.172;6.974;2023-06-26T06:27:16;7.30;;;3.58;;
52512;SDS011;38422;53.172;6.974;2023-06-26T06:29:42;6.77;;;3.37;;
52512;SDS011;38422;53.172;6.974;2023-06-26T06:32:08;9.73;;;3.60;;
52512;SDS011;38422;53.172;6.974;2023-06-26T06:34:34;8.43;;;3.17;;
52512;SDS011;38422;53.172;6.974;2023-06-26T06:36:59;6.87;;;2.70;;
52512;SDS011;38422;53.172;6.974;2023-06-26T06:39:25;6.80;;;3.10;;
52512;SDS011;38422;53.172;6.974;2023-06-26T06:41:51;7.43;;;3.23;;
52512;SDS011;38422;53.172;6.974;2023-06-26T06:44:17;5.60;;;2.72;;
52512;SDS011;38422;53.172;6.974;2023-06-26T06:46:42;5.50;;;2.30;;
52512;SDS011;38422;53.172;6.974;2023-06-26T06:49:08;7.30;;;2.57;;
52512;SDS011;38422;53.172;6.974;2023-06-26T06:51:35;6.45;;;2.65;;
52512;SDS011;38422;53.172;6.974;2023-06-26T06:54:01;6.70;;;2.63;;
52512;SDS011;38422;53.172;6.974;2023-06-26T06:56:27;7.83;;;2.40;;
52512;SDS011;38422;53.172;6.974;2023-06-26T06:58:53;7.65;;;2.53;;
52512;SDS011;38422;53.172;6.974;2023-06-26T07:01:18;6.50;;;2.23;;
52512;SDS011;38422;53.172;6.974;2023-06-26T07:03:44;7.95;;;2.55;;
52512;SDS011;38422;53.172;6.974;2023-06-26T07:06:10;5.50;;;1.93;;
52512;SDS011;38422;53.172;6.974;2023-06-26T07:08:35;6.22;;;2.15;;
52512;SDS011;38422;53.172;6.974;2023-06-26T07:11:01;5.53;;;2.03;;
52512;SDS011;38422;53.172;6.974;2023-06-26T07:13:28;4.45;;;1.67;;
52512;SDS011;38422;53.172;6.974;2023-06-26T07:15:53;6.43;;;2.07;;
52512;SDS011;38422;53.172;6.974;2023-06-26T07:18:19;7.57;;;2.45;;
52512;SDS011;38422;53.172;6.974;2023-06-26T07:20:45;5.67;;;2.07;;
52512;SDS011;38422;53.172;6.974;2023-06-26T07:23:10;6.30;;;2.05;;
52512;SDS011;38422;53.172;6.974;2023-06-26T07:25:36;6.83;;;2.00;;
52512;SDS011;38422;53.172;6.974;2023-06-26T07:28:02;4.15;;;1.70;;
52512;SDS011;38422;53.172;6.974;2023-06-26T07:30:28;5.28;;;1.92;;
52512;SDS011;38422;53.172;6.974;2023-06-26T07:32:53;6.00;;;1.80;;
52512;SDS011;38422;53.172;6.974;2023-06-26T07:35:19;5.50;;;1.60;;
52512;SDS011;38422;53.172;6.974;2023-06-26T07:37:45;5.47;;;1.60;;
52512;SDS011;38422;53.172;6.974;2023-06-26T07:40:11;4.80;;;1.47;;
52512;SDS011;38422;53.172;6.974;2023-06-26T07:42:37;4.07;;;1.20;;
52512;SDS011;38422;53.172;6.974;2023-06-26T07:45:02;4.97;;;1.37;;
52512;SDS011;38422;53.172;6.974;2023-06-26T07:47:36;3.40;;;1.20;;
52512;SDS011;38422;53.172;6.974;2023-06-26T07:50:02;4.35;;;1.20;;
52512;SDS011;38422;53.172;6.974;2023-06-26T07:52:28;4.10;;;1.55;;
52512;SDS011;38422;53.172;6.974;2023-06-26T07:54:55;5.53;;;1.50;;
52512;SDS011;38422;53.172;6.974;2023-06-26T07:57:21;5.47;;;1.38;;
52512;SDS011;38422;53.172;6.974;2023-06-26T07:59:47;4.70;;;1.10;;
52512;SDS011;38422;53.172;6.974;2023-06-26T08:02:12;4.97;;;1.20;;
52512;SDS011;38422;53.172;6.974;2023-06-26T08:04:38;2.80;;;1.10;;
52512;SDS011;38422;53.172;6.974;2023-06-26T08:07:04;3.17;;;1.10;;
52512;SDS011;38422;53.172;6.974;2023-06-26T08:09:30;4.80;;;1.23;;
52512;SDS011;38422;53.172;6.974;2023-06-26T08:11:57;3.70;;;1.25;;
52512;SDS011;38422;53.172;6.974;2023-06-26T08:14:23;6.38;;;1.65;;
52512;SDS011;38422;53.172;6.974;2023-06-26T08:16:49;4.23;;;1.20;;
52512;SDS011;38422;53.172;6.974;2023-06-26T08:19:15;4.22;;;1.25;;
52512;SDS011;38422;53.172;6.974;2023-06-26T08:21:42;3.97;;;1.10;;
52512;SDS011;38422;53.172;6.974;2023-06-26T08:24:09;3.00;;;1.00;;
52512;SDS011;38422;53.172;6.974;2023-06-26T08:26:35;4.53;;;1.13;;
52512;SDS011;38422;53.172;6.974;2023-06-26T08:29:02;2.88;;;1.00;;
52512;SDS011;38422;53.172;6.974;2023-06-26T08:31:33;4.35;;;1.20;;
52512;SDS011;38422;53.172;6.974;2023-06-26T08:34:02;4.20;;;1.00;;
52512;SDS011;38422;53.172;6.974;2023-06-26T08:36:29;2.28;;;0.90;;
52512;SDS011;38422;53.172;6.974;2023-06-26T08:38:54;2.20;;;0.90;;
52512;SDS011;38422;53.172;6.974;2023-06-26T08:41:20;3.20;;;1.00;;
52512;SDS011;38422;53.172;6.974;2023-06-26T08:43:46;4.77;;;1.00;;
52512;SDS011;38422;53.172;6.974;2023-06-26T08:46:12;4.15;;;0.98;;
52512;SDS011;38422;53.172;6.974;2023-06-26T08:48:40;2.63;;;1.00;;
52512;SDS011;38422;53.172;6.974;2023-06-26T08:51:11;4.05;;;1.20;;
52512;SDS011;38422;53.172;6.974;2023-06-26T08:54:00;5.95;;;1.25;;
52512;SDS011;38422;53.172;6.974;2023-06-26T08:56:28;3.00;;;1.10;;
52512;SDS011;38422;53.172;6.974;2023-06-26T08:58:57;3.97;;;1.13;;
52512;SDS011;38422;53.172;6.974;2023-06-26T09:01:24;4.93;;;1.10;;
52512;SDS011;38422;53.172;6.974;2023-06-26T09:03:50;4.43;;;1.05;;
52512;SDS011;38422;53.172;6.974;2023-06-26T09:06:16;2.30;;;0.80;;
52512;SDS011;38422;53.172;6.974;2023-06-26T09:08:43;2.75;;;1.00;;
52512;SDS011;38422;53.172;6.974;2023-06-26T09:11:09;2.67;;;0.90;;
52512;SDS011;38422;53.172;6.974;2023-06-26T09:13:35;4.23;;;1.20;;
52512;SDS011;38422;53.172;6.974;2023-06-26T09:16:05;3.05;;;1.08;;
52512;SDS011;38422;53.172;6.974;2023-06-26T09:18:33;6.00;;;1.27;;
52512;SDS011;38422;53.172;6.974;2023-06-26T09:20:58;3.07;;;1.03;;
52512;SDS011;38422;53.172;6.974;2023-06-26T09:23:25;2.28;;;1.08;;
52512;SDS011;38422;53.172;6.974;2023-06-26T09:25:51;2.90;;;1.08;;
52512;SDS011;38422;53.172;6.974;2023-06-26T09:28:17;2.80;;;1.00;;
52512;SDS011;38422;53.172;6.974;2023-06-26T09:30:44;2.78;;;1.00;;
52512;SDS011;38422;53.172;6.974;2023-06-26T09:33:20;4.55;;;1.50;;
52512;SDS011;38422;53.172;6.974;2023-06-26T09:35:46;4.32;;;1.17;;
52512;SDS011;38422;53.172;6.974;2023-06-26T09:38:13;3.72;;;1.00;;
52512;SDS011;38422;53.172;6.974;2023-06-26T09:40:40;2.90;;;1.15;;
52512;SDS011;38422;53.172;6.974;2023-06-26T09:43:06;5.15;;;1.23;;
52512;SDS011;38422;53.172;6.974;2023-06-26T09:45:33;4.15;;;1.10;;
52512;SDS011;38422;53.172;6.974;2023-06-26T09:48:01;2.45;;;1.10;;
52512;SDS011;38422;53.172;6.974;2023-06-26T09:50:30;3.47;;;1.02;;
52512;SDS011;38422;53.172;6.974;2023-06-26T09:53:06;3.75;;;1.00;;
52512;SDS011;38422;53.172;6.974;2023-06-26T09:55:36;2.25;;;1.10;;
52512;SDS011;38422;53.172;6.974;2023-06-26T09:58:03;4.20;;;1.27;;
52512;SDS011;38422;53.172;6.974;2023-06-26T10:00:32;2.72;;;1.00;;
52512;SDS011;38422;53.172;6.974;2023-06-26T10:03:01;5.50;;;1.20;;
52512;SDS011;38422;53.172;6.974;2023-06-26T10:05:29;2.45;;;0.98;;
52512;SDS011;38422;53.172;6.974;2023-06-26T10:07:55;3.20;;;1.10;;
52512;SDS011;38422;53.172;6.974;2023-06-26T10:10:23;3.10;;;0.98;;
52512;SDS011;38422;53.172;6.974;2023-06-26T10:12:53;2.60;;;1.10;;
52512;SDS011;38422;53.172;6.974;2023-06-26T10:15:24;2.65;;;1.00;;
52512;SDS011;38422;53.172;6.974;2023-06-26T10:17:52;3.50;;;0.98;;
52512;SDS011;38422;53.172;6.974;2023-06-26T10:20:21;3.05;;;1.13;;
52512;SDS011;38422;53.172;6.974;2023-06-26T10:22:47;3.72;;;0.90;;
52512;SDS011;38422;53.172;6.974;2023-06-26T10:25:16;1.90;;;1.00;;
52512;SDS011;38422;53.172;6.974;2023-06-26T10:27:46;3.08;;;0.90;;
52512;SDS011;38422;53.172;6.974;2023-06-26T10:30:17;3.80;;;1.10;;
52512;SDS011;38422;53.172;6.974;2023-06-26T10:32:46;4.80;;;1.00;;
52512;SDS011;38422;53.172;6.974;2023-06-26T10:35:12;1.88;;;1.10;;
52512;SDS011;38422;53.172;6.974;2023-06-26T10:37:42;2.15;;;0.90;;
52512;SDS011;38422;53.172;6.974;2023-06-26T10:40:09;3.38;;;1.20;;
52512;SDS011;38422;53.172;6.974;2023-06-26T10:42:36;1.33;;;0.88;;
52512;SDS011;38422;53.172;6.974;2023-06-26T10:45:10;3.72;;;1.15;;
52512;SDS011;38422;53.172;6.974;2023-06-26T10:47:46;2.58;;;0.90;;
52512;SDS011;38422;53.172;6.974;2023-06-26T10:50:16;2.35;;;0.88;;
52512;SDS011;38422;53.172;6.974;2023-06-26T10:53:06;2.55;;;0.93;;
52512;SDS011;38422;53.172;6.974;2023-06-26T10:55:36;2.30;;;0.90;;
52512;SDS011;38422;53.172;6.974;2023-06-26T10:58:10;2.88;;;0.88;;
52512;SDS011;38422;53.172;6.974;2023-06-26T11:00:52;3.25;;;0.98;;
52512;SDS011;38422;53.172;6.974;2023-06-26T11:03:29;2.70;;;0.80;;
52512;SDS011;38422;53.172;6.974;2023-06-26T11:06:08;1.75;;;0.93;;
52512;SDS011;38422;53.172;6.974;2023-06-26T11:08:48;4.25;;;1.00;;
52512;SDS011;38422;53.172;6.974;2023-06-26T11:11:15;2.00;;;0.98;;
52512;SDS011;38422;53.172;6.974;2023-06-26T11:13:41;3.55;;;0.98;;
52512;SDS011;38422;53.172;6.974;2023-06-26T11:16:07;1.80;;;0.73;;
52512;SDS011;38422;53.172;6.974;2023-06-26T11:18:33;2.20;;;0.80;;
52512;SDS011;38422;53.172;6.974;2023-06-26T11:21:08;1.37;;;0.80;;
52512;SDS011;38422;53.172;6.974;2023-06-26T11:23:36;2.53;;;1.10;;
52512;SDS011;38422;53.172;6.974;2023-06-26T11:28:47;2.85;;;1.25;;
52512;SDS011;38422;53.172;6.974;2023-06-26T11:34:09;3.72;;;1.00;;
52512;SDS011;38422;53.172;6.974;2023-06-26T11:36:37;2.08;;;1.00;;
52512;SDS011;38422;53.172;6.974;2023-06-26T11:39:04;3.88;;;1.20;;
52512;SDS011;38422;53.172;6.974;2023-06-26T11:41:32;2.50;;;0.90;;
52512;SDS011;38422;53.172;6.974;2023-06-26T11:44:02;3.47;;;1.00;;
52512;SDS011;38422;53.172;6.974;2023-06-26T11:46:30;2.60;;;1.00;;
52512;SDS011;38422;53.172;6.974;2023-06-26T11:48:56;3.05;;;1.10;;
52512;SDS011;38422;53.172;6.974;2023-06-26T11:51:22;5.00;;;0.90;;
52512;SDS011;38422;53.172;6.974;2023-06-26T11:53:48;2.08;;;0.85;;
52512;SDS011;38422;53.172;6.974;2023-06-26T11:56:14;2.90;;;0.70;;
52512;SDS011;38422;53.172;6.974;2023-06-26T12:01:38;3.42;;;0.82;;
52512;SDS011;38422;53.172;6.974;2023-06-26T12:04:06;2.72;;;0.90;;
52512;SDS011;38422;53.172;6.974;2023-06-26T12:06:33;1.98;;;0.80;;
52512;SDS011;38422;53.172;6.974;2023-06-26T12:09:01;3.28;;;1.10;;
52512;SDS011;38422;53.172;6.974;2023-06-26T12:11:31;2.70;;;0.90;;
52512;SDS011;38422;53.172;6.974;2023-06-26T12:13:58;3.42;;;0.80;;
52512;SDS011;38422;53.172;6.974;2023-06-26T12:16:25;4.40;;;0.93;;
52512;SDS011;38422;53.172;6.974;2023-06-26T12:18:52;2.65;;;0.77;;
52512;SDS011;38422;53.172;6.974;2023-06-26T12:24:14;2.63;;;0.63;;
52512;SDS011;38422;53.172;6.974;2023-06-26T12:26:41;3.33;;;0.80;;
52512;SDS011;38422;53.172;6.974;2023-06-26T12:29:10;2.33;;;0.80;;
52512;SDS011;38422;53.172;6.974;2023-06-26T12:31:44;2.33;;;0.70;;
52512;SDS011;38422;53.172;6.974;2023-06-26T12:34:13;2.15;;;0.75;;
52512;SDS011;38422;53.172;6.974;2023-06-26T12:36:44;1.92;;;0.60;;
52512;SDS011;38422;53.172;6.974;2023-06-26T12:39:12;1.30;;;0.57;;
52512;SDS011;38422;53.172;6.974;2023-06-26T12:42:21;1.63;;;0.52;;
52512;SDS011;38422;53.172;6.974;2023-06-26T12:44:28;2.88;;;0.80;;
52512;SDS011;38422;53.172;6.974;2023-06-26T12:46:56;2.75;;;0.90;;
52512;SDS011;38422;53.172;6.974;2023-06-26T12:52:01;3.20;;;0.90;;
52512;SDS011;38422;53.172;6.974;2023-06-26T12:54:28;5.75;;;0.98;;
52512;SDS011;38422;53.172;6.974;2023-06-26T12:56:54;3.00;;;0.77;;
52512;SDS011;38422;53.172;6.974;2023-06-26T12:59:20;4.57;;;1.40;;
52512;SDS011;38422;53.172;6.974;2023-06-26T13:04:12;2.78;;;0.63;;
52512;SDS011;38422;53.172;6.974;2023-06-26T13:06:38;2.78;;;0.80;;
52512;SDS011;38422;53.172;6.974;2023-06-26T13:09:04;2.90;;;0.73;;
52512;SDS011;38422;53.172;6.974;2023-06-26T13:11:30;3.83;;;1.02;;
52512;SDS011;38422;53.172;6.974;2023-06-26T13:16:22;2.78;;;1.02;;
52512;SDS011;38422;53.172;6.974;2023-06-26T13:18:48;3.70;;;0.80;;
52512;SDS011;38422;53.172;6.974;2023-06-26T13:21:14;4.05;;;0.90;;
52512;SDS011;38422;53.172;6.974;2023-06-26T13:23:40;2.85;;;0.82;;
52512;SDS011;38422;53.172;6.974;2023-06-26T13:26:06;3.78;;;1.02;;
52512;SDS011;38422;53.172;6.974;2023-06-26T13:28:32;1.52;;;0.70;;
52512;SDS011;38422;53.172;6.974;2023-06-26T13:30:58;1.80;;;0.70;;
52512;SDS011;38422;53.172;6.974;2023-06-26T13:33:24;2.20;;;0.63;;
52512;SDS011;38422;53.172;6.974;2023-06-26T13:35:52;3.70;;;0.90;;
52512;SDS011;38422;53.172;6.974;2023-06-26T13:38:21;2.73;;;0.90;;
52512;SDS011;38422;53.172;6.974;2023-06-26T13:40:54;1.83;;;0.60;;
52512;SDS011;38422;53.172;6.974;2023-06-26T13:43:20;3.47;;;0.80;;
52512;SDS011;38422;53.172;6.974;2023-06-26T13:45:47;2.78;;;0.80;;
52512;SDS011;38422;53.172;6.974;2023-06-26T13:50:39;3.55;;;0.95;;
52512;SDS011;38422;53.172;6.974;2023-06-26T13:53:05;2.30;;;0.50;;
52512;SDS011;38422;53.172;6.974;2023-06-26T13:55:31;2.47;;;0.70;;
52512;SDS011;38422;53.172;6.974;2023-06-26T13:57:58;3.47;;;0.98;;
52512;SDS011;38422;53.172;6.974;2023-06-26T14:00:24;3.15;;;0.70;;
52512;SDS011;38422;53.172;6.974;2023-06-26T14:02:50;2.03;;;0.63;;
52512;SDS011;38422;53.172;6.974;2023-06-26T14:05:16;2.22;;;0.73;;
52512;SDS011;38422;53.172;6.974;2023-06-26T14:07:44;4.72;;;1.17;;
52512;SDS011;38422;53.172;6.974;2023-06-26T14:10:10;3.40;;;1.00;;
52512;SDS011;38422;53.172;6.974;2023-06-26T14:12:36;3.72;;;0.77;;
52512;SDS011;38422;53.172;6.974;2023-06-26T14:15:01;4.13;;;0.98;;
52512;SDS011;38422;53.172;6.974;2023-06-26T14:17:28;2.17;;;0.82;;
52512;SDS011;38422;53.172;6.974;2023-06-26T14:19:54;2.05;;;0.73;;
52512;SDS011;38422;53.172;6.974;2023-06-26T14:22:20;4.50;;;0.93;;
52512;SDS011;38422;53.172;6.974;2023-06-26T14:24:46;3.08;;;1.00;;
52512;SDS011;38422;53.172;6.974;2023-06-26T14:27:11;4.38;;;0.98;;
52512;SDS011;38422;53.172;6.974;2023-06-26T14:29:37;4.13;;;1.00;;
52512;SDS011;38422;53.172;6.974;2023-06-26T14:32:03;3.53;;;0.90;;
52512;SDS011;38422;53.172;6.974;2023-06-26T14:34:29;2.97;;;1.00;;
52512;SDS011;38422;53.172;6.974;2023-06-26T14:36:55;4.07;;;0.83;;
52512;SDS011;38422;53.172;6.974;2023-06-26T14:39:21;2.13;;;0.63;;
52512;SDS011;38422;53.172;6.974;2023-06-26T14:41:46;3.33;;;0.87;;
52512;SDS011;38422;53.172;6.974;2023-06-26T14:44:13;5.20;;;0.85;;
52512;SDS011;38422;53.172;6.974;2023-06-26T14:46:39;4.38;;;0.80;;
52512;SDS011;38422;53.172;6.974;2023-06-26T14:49:05;1.70;;;0.60;;
52512;SDS011;38422;53.172;6.974;2023-06-26T14:51:30;4.40;;;0.80;;
52512;SDS011;38422;53.172;6.974;2023-06-26T14:53:56;4.82;;;0.80;;
52512;SDS011;38422;53.172;6.974;2023-06-26T14:56:22;3.58;;;1.10;;
52512;SDS011;38422;53.172;6.974;2023-06-26T14:58:49;2.10;;;0.63;;
52512;SDS011;38422;53.172;6.974;2023-06-26T15:01:16;2.00;;;0.73;;
52512;SDS011;38422;53.172;6.974;2023-06-26T15:03:44;2.28;;;0.75;;
52512;SDS011;38422;53.172;6.974;2023-06-26T15:06:13;3.97;;;0.93;;
52512;SDS011;38422;53.172;6.974;2023-06-26T15:08:38;4.13;;;0.90;;
52512;SDS011;38422;53.172;6.974;2023-06-26T15:11:04;2.63;;;0.80;;
52512;SDS011;38422;53.172;6.974;2023-06-26T15:13:30;3.35;;;0.85;;
52512;SDS011;38422;53.172;6.974;2023-06-26T15:15:56;5.32;;;1.00;;
52512;SDS011;38422;53.172;6.974;2023-06-26T15:18:21;4.33;;;1.13;;
52512;SDS011;38422;53.172;6.974;2023-06-26T15:20:47;3.63;;;1.00;;